createdAt,value
2023-04-16T00:01:13.766Z,1.60
2023-04-16T00:03:41.720Z,4.18
2023-04-16T00:06:10.709Z,3.97
2023-04-16T00:08:38.554Z,2.13
2023-04-16T00:11:06.661Z,2.85
2023-04-16T00:13:34.083Z,2.08
2023-04-16T00:16:01.522Z,2.97
2023-04-16T00:18:28.946Z,2.90
2023-04-16T00:20:56.794Z,3.75
2023-04-16T00:23:25.531Z,2.47
2023-04-16T00:25:56.823Z,3.13
2023-04-16T00:28:24.644Z,2.90
2023-04-16T00:30:52.444Z,2.25
2023-04-16T00:33:20.259Z,2.13
2023-04-16T00:35:48.360Z,2.40
2023-04-16T00:38:16.058Z,2.58
2023-04-16T00:40:43.672Z,2.25
2023-04-16T00:43:11.705Z,2.28
2023-04-16T00:45:39.569Z,2.75
2023-04-16T00:48:10.193Z,2.53
2023-04-16T00:50:39.739Z,2.90
2023-04-16T00:53:08.294Z,3.90
2023-04-16T00:55:35.929Z,2.83
2023-04-16T00:58:04.270Z,3.30
2023-04-16T01:00:31.785Z,3.03
2023-04-16T01:03:00.661Z,4.07
2023-04-16T01:05:28.731Z,3.15
2023-04-16T01:08:01.117Z,2.90
2023-04-16T01:10:28.778Z,4.30
2023-04-16T01:12:57.761Z,2.65
2023-04-16T01:15:25.265Z,4.13
2023-04-16T01:17:52.874Z,2.70
2023-04-16T01:20:20.812Z,2.97
2023-04-16T01:22:48.326Z,3.58
2023-04-16T01:25:16.583Z,2.65
2023-04-16T01:27:44.069Z,3.40
2023-04-16T01:30:12.193Z,3.55
2023-04-16T01:32:59.471Z,2.58
2023-04-16T01:35:27.364Z,3.15
2023-04-16T01:37:55.198Z,5.32
2023-04-16T01:40:23.048Z,2.97
2023-04-16T01:42:53.488Z,3.53
2023-04-16T01:45:21.529Z,4.32
2023-04-16T01:47:52.869Z,4.53
2023-04-16T01:50:22.171Z,2.35
2023-04-16T01:52:49.432Z,2.97
2023-04-16T01:55:16.650Z,2.05
2023-04-16T01:57:44.167Z,2.72
2023-04-16T02:00:13.258Z,2.88
2023-04-16T02:02:47.496Z,1.95
2023-04-16T02:05:21.031Z,2.28
2023-04-16T02:07:48.341Z,3.53
2023-04-16T02:10:17.144Z,2.85
2023-04-16T02:12:45.286Z,2.45
2023-04-16T02:15:14.143Z,3.05
2023-04-16T02:17:41.882Z,3.28
2023-04-16T02:20:12.651Z,3.33
2023-04-16T02:22:52.535Z,2.03
2023-04-16T02:25:23.312Z,3.10
2023-04-16T02:27:53.111Z,2.75
2023-04-16T02:30:38.516Z,2.33
2023-04-16T02:33:11.814Z,3.28
2023-04-16T02:35:43.380Z,2.28
2023-04-16T02:38:11.063Z,2.13
2023-04-16T02:40:38.636Z,3.13
2023-04-16T02:43:08.839Z,5.47
2023-04-16T02:45:39.662Z,3.90
2023-04-16T02:48:08.869Z,3.70
2023-04-16T02:50:36.754Z,2.85
2023-04-16T02:53:04.572Z,3.00
2023-04-16T02:55:32.263Z,2.80
2023-04-16T02:57:59.895Z,3.10
2023-04-16T03:00:27.471Z,2.05
2023-04-16T03:02:55.536Z,2.15
2023-04-16T03:05:23.227Z,2.53
2023-04-16T03:07:59.798Z,4.13
2023-04-16T03:10:27.395Z,3.72
2023-04-16T03:12:54.839Z,2.25
2023-04-16T03:15:22.395Z,2.63
2023-04-16T03:17:49.876Z,2.63
2023-04-16T03:20:20.546Z,4.03
2023-04-16T03:22:48.185Z,2.55
2023-04-16T03:25:15.863Z,2.75
2023-04-16T03:27:43.619Z,2.30
2023-04-16T03:30:14.146Z,1.95
2023-04-16T03:32:42.062Z,2.22
2023-04-16T03:35:10.787Z,4.15
2023-04-16T03:37:38.642Z,2.30
2023-04-16T03:40:07.326Z,2.17
2023-04-16T03:42:35.110Z,2.58
2023-04-16T03:45:03.894Z,2.88
2023-04-16T03:47:32.367Z,5.85
2023-04-16T03:50:03.823Z,2.60
2023-04-16T03:52:31.333Z,3.65
2023-04-16T03:54:58.867Z,2.53
2023-04-16T03:57:28.312Z,3.28
2023-04-16T04:00:00.749Z,4.32
2023-04-16T04:02:30.782Z,2.85
2023-04-16T04:04:58.143Z,2.80
2023-04-16T04:07:29.875Z,2.38
2023-04-16T04:09:57.527Z,2.88
2023-04-16T04:12:24.620Z,3.00
2023-04-16T04:14:52.410Z,2.70
2023-04-16T04:17:19.545Z,3.10
2023-04-16T04:19:59.975Z,2.83
2023-04-16T04:22:28.647Z,2.13
2023-04-16T04:24:55.948Z,3.58
2023-04-16T04:27:23.522Z,3.50
2023-04-16T04:29:50.739Z,2.83
2023-04-16T04:32:18.146Z,3.30
2023-04-16T04:34:46.424Z,2.83
2023-04-16T04:37:13.703Z,3.05
2023-04-16T04:39:41.123Z,2.50
2023-04-16T04:42:08.911Z,2.05
2023-04-16T04:44:36.309Z,3.35
2023-04-16T04:47:03.469Z,3.17
2023-04-16T04:49:31.335Z,2.92
2023-04-16T04:51:58.507Z,3.20
2023-04-16T04:54:25.675Z,2.00
2023-04-16T04:56:54.024Z,2.60
2023-04-16T04:59:21.772Z,2.65
2023-04-16T05:01:49.972Z,2.55
2023-04-16T05:04:17.694Z,3.30
2023-04-16T05:06:44.905Z,2.30
2023-04-16T05:09:12.096Z,2.25
2023-04-16T05:11:39.564Z,2.35
2023-04-16T05:14:06.714Z,3.78
2023-04-16T05:16:36.886Z,3.40
2023-04-16T05:19:05.082Z,3.88
2023-04-16T05:21:32.308Z,2.97
2023-04-16T05:23:59.632Z,3.00
2023-04-16T05:26:26.915Z,2.17
2023-04-16T05:28:54.319Z,2.75
2023-04-16T05:31:21.827Z,3.65
2023-04-16T05:33:49.055Z,3.60
2023-04-16T05:36:16.213Z,2.63
2023-04-16T05:38:43.436Z,4.32
2023-04-16T05:41:10.762Z,3.95
2023-04-16T05:43:37.982Z,2.97
2023-04-16T05:46:05.235Z,2.58
2023-04-16T05:48:32.614Z,3.10
2023-04-16T05:50:59.761Z,2.58
2023-04-16T05:53:27.071Z,2.83
2023-04-16T05:55:54.193Z,3.30
2023-04-16T05:58:21.397Z,2.47
2023-04-16T06:00:48.853Z,2.20
2023-04-16T06:03:16.280Z,3.58
2023-04-16T06:05:44.015Z,2.50
2023-04-16T06:08:11.391Z,2.65
2023-04-16T06:10:38.558Z,3.35
2023-04-16T06:13:05.897Z,2.78
2023-04-16T06:15:33.205Z,3.33
2023-04-16T06:18:01.115Z,3.60
2023-04-16T06:20:28.640Z,3.50
2023-04-16T06:22:56.331Z,3.05
2023-04-16T06:25:23.890Z,2.97
2023-04-16T06:27:51.058Z,2.00
2023-04-16T06:30:19.938Z,3.13
2023-04-16T06:32:47.179Z,3.08
2023-04-16T06:35:14.366Z,2.60
2023-04-16T06:37:41.680Z,2.55
2023-04-16T06:40:09.347Z,2.78
2023-04-16T06:42:36.727Z,2.88
2023-04-16T06:45:04.426Z,2.95
2023-04-16T06:47:31.802Z,2.15
2023-04-16T06:49:58.916Z,1.73
2023-04-16T06:52:26.219Z,3.20
2023-04-16T06:54:53.357Z,1.95
2023-04-16T06:57:20.476Z,3.20
2023-04-16T06:59:47.612Z,2.50
2023-04-16T07:02:14.919Z,2.45
2023-04-16T07:04:42.028Z,1.75
2023-04-16T07:07:09.264Z,2.20
2023-04-16T07:09:36.718Z,1.70
2023-04-16T07:12:08.309Z,1.60
2023-04-16T07:14:35.593Z,2.10
2023-04-16T07:17:02.746Z,1.58
2023-04-16T07:19:32.644Z,2.30
2023-04-16T07:22:00.738Z,1.35
2023-04-16T07:24:28.046Z,1.42
2023-04-16T07:26:55.504Z,1.73
2023-04-16T07:29:22.843Z,1.63
2023-04-16T07:31:50.071Z,1.60
2023-04-16T07:34:17.188Z,1.00
2023-04-16T07:36:44.371Z,1.25
2023-04-16T07:39:12.395Z,1.10
2023-04-16T07:41:41.114Z,1.20
2023-04-16T07:44:08.670Z,0.90
2023-04-16T07:46:43.570Z,0.90
2023-04-16T07:49:14.038Z,0.73
2023-04-16T07:51:41.265Z,0.90
2023-04-16T07:54:08.483Z,1.38
2023-04-16T07:56:35.801Z,0.70
2023-04-16T07:59:18.421Z,1.05
2023-04-16T08:01:46.192Z,0.82
2023-04-16T08:04:14.435Z,0.63
2023-04-16T08:06:41.744Z,0.75
2023-04-16T08:09:09.195Z,0.70
2023-04-16T08:11:36.531Z,0.73
2023-04-16T08:14:03.889Z,0.50
2023-04-16T08:16:31.246Z,0.60
2023-04-16T08:19:01.164Z,0.80
2023-04-16T08:21:29.506Z,0.70
2023-04-16T08:23:56.745Z,0.52
2023-04-16T08:26:23.959Z,0.60
2023-04-16T08:28:51.106Z,1.20
2023-04-16T08:31:18.426Z,0.60
2023-04-16T08:33:45.657Z,0.90
2023-04-16T08:36:13.180Z,0.80
2023-04-16T08:38:40.805Z,0.88
2023-04-16T08:41:12.294Z,0.70
2023-04-16T08:43:45.109Z,0.70
2023-04-16T08:46:12.878Z,1.00
2023-04-16T08:48:43.946Z,0.80
2023-04-16T08:51:12.226Z,0.98
2023-04-16T08:54:04.615Z,0.60
2023-04-16T08:56:35.077Z,0.90
2023-04-16T08:59:05.716Z,0.70
2023-04-16T09:01:36.451Z,0.80
2023-04-16T09:04:05.536Z,0.70
2023-04-16T09:06:34.912Z,0.80
2023-04-16T09:09:04.944Z,0.90
2023-04-16T09:11:32.514Z,0.82
2023-04-16T09:14:00.649Z,0.77
2023-04-16T09:16:33.749Z,0.75
2023-04-16T09:19:01.095Z,0.80
2023-04-16T09:21:28.265Z,0.77
2023-04-16T09:23:56.185Z,0.90
2023-04-16T09:26:23.882Z,0.80
2023-04-16T09:28:51.576Z,0.80
2023-04-16T09:31:19.977Z,1.17
2023-04-16T09:34:08.649Z,0.73
2023-04-16T09:36:37.347Z,0.65
2023-04-16T09:39:07.901Z,0.75
2023-04-16T09:41:41.594Z,0.90
2023-04-16T09:44:09.138Z,0.68
2023-04-16T09:46:43.661Z,0.80
2023-04-16T09:49:14.125Z,0.70
2023-04-16T09:51:42.772Z,0.80
2023-04-16T09:54:13.076Z,0.70
2023-04-16T10:02:15.853Z,0.95
2023-04-16T10:05:05.956Z,0.70
2023-04-16T10:07:37.528Z,0.70
2023-04-16T10:10:05.577Z,0.93
2023-04-16T10:12:33.075Z,0.90
2023-04-16T10:15:00.323Z,0.60
2023-04-16T10:17:30.155Z,0.50
2023-04-16T10:19:58.750Z,0.60
2023-04-16T10:22:26.699Z,0.77
2023-04-16T10:24:54.891Z,0.68
2023-04-16T10:27:22.694Z,0.90
2023-04-16T10:29:50.786Z,0.65
2023-04-16T10:32:20.934Z,0.80
2023-04-16T10:34:48.748Z,1.02
2023-04-16T10:37:18.166Z,0.50
2023-04-16T10:39:45.427Z,0.80
2023-04-16T10:42:15.696Z,0.60
2023-04-16T10:44:45.319Z,0.88
2023-04-16T10:47:14.257Z,0.57
2023-04-16T10:49:42.646Z,0.70
2023-04-16T10:53:03.430Z,0.95
2023-04-16T10:55:30.589Z,1.10
2023-04-16T10:57:59.479Z,0.90
2023-04-16T11:00:26.722Z,0.85
2023-04-16T11:02:54.874Z,0.75
2023-04-16T11:05:23.984Z,0.82
2023-04-16T11:07:51.831Z,0.93
2023-04-16T11:10:19.226Z,0.88
2023-04-16T11:12:50.855Z,0.88
2023-04-16T11:15:19.728Z,0.90
2023-04-16T11:17:48.652Z,0.60
2023-04-16T11:20:19.875Z,0.90
2023-04-16T11:22:49.038Z,0.85
2023-04-16T11:25:30.349Z,0.90
2023-04-16T11:27:59.422Z,0.70
2023-04-16T11:30:34.638Z,0.80
2023-04-16T11:33:05.621Z,0.88
2023-04-16T11:35:32.937Z,0.90
2023-04-16T11:38:00.210Z,1.00
2023-04-16T11:40:31.762Z,1.30
2023-04-16T11:43:15.803Z,0.70
2023-04-16T11:46:16.652Z,0.60
2023-04-16T11:48:53.785Z,0.93
2023-04-16T11:51:23.267Z,0.70
2023-04-16T11:53:54.467Z,0.88
2023-04-16T11:56:29.826Z,0.88
2023-04-16T11:59:27.138Z,0.57
2023-04-16T12:01:58.421Z,1.27
2023-04-16T12:04:27.810Z,0.70
2023-04-16T12:07:09.636Z,0.93
2023-04-16T12:09:40.540Z,0.60
2023-04-16T12:12:31.418Z,0.90
2023-04-16T12:15:05.292Z,1.08
2023-04-16T12:17:33.807Z,1.00
2023-04-16T12:20:06.139Z,0.85
2023-04-16T12:22:37.727Z,0.70
2023-04-16T12:25:07.720Z,0.93
2023-04-16T12:27:54.025Z,0.90
2023-04-16T12:30:28.772Z,0.60
2023-04-16T12:33:16.763Z,1.23
2023-04-16T12:35:45.095Z,0.60
2023-04-16T12:38:14.270Z,0.50
2023-04-16T12:40:41.962Z,0.75
2023-04-16T12:43:10.833Z,0.90
2023-04-16T12:45:39.518Z,0.98
2023-04-16T12:48:07.159Z,0.65
2023-04-16T12:50:34.625Z,0.60
2023-04-16T12:53:02.261Z,1.20
2023-04-16T12:55:29.868Z,0.85
2023-04-16T12:57:57.119Z,1.17
2023-04-16T13:00:24.530Z,0.93
2023-04-16T13:02:51.999Z,0.80
2023-04-16T13:05:19.728Z,1.02
2023-04-16T13:07:47.220Z,1.45
2023-04-16T13:10:14.456Z,1.02
2023-04-16T13:12:41.742Z,0.73
2023-04-16T13:15:09.942Z,0.70
2023-04-16T13:17:37.370Z,0.57
2023-04-16T13:20:05.249Z,0.55
2023-04-16T13:22:32.465Z,0.70
2023-04-16T13:24:59.833Z,0.60
2023-04-16T13:27:26.969Z,0.90
2023-04-16T13:29:54.335Z,0.98
2023-04-16T13:32:21.722Z,0.70
2023-04-16T13:34:50.532Z,0.60
2023-04-16T13:37:17.829Z,0.75
2023-04-16T13:39:45.620Z,1.30
2023-04-16T13:42:32.154Z,1.08
2023-04-16T13:45:12.132Z,0.82
2023-04-16T13:47:42.440Z,0.82
2023-04-16T13:50:10.527Z,0.90
2023-04-16T13:52:37.945Z,0.70
2023-04-16T13:55:06.052Z,0.60
2023-04-16T13:57:33.218Z,0.80
2023-04-16T14:00:00.566Z,0.70
2023-04-16T14:02:28.180Z,0.70
2023-04-16T14:04:55.627Z,0.65
2023-04-16T14:07:26.311Z,0.90
2023-04-16T14:09:54.337Z,0.60
2023-04-16T14:12:27.729Z,0.80
2023-04-16T14:14:55.388Z,1.20
2023-04-16T14:17:22.630Z,1.15
2023-04-16T14:19:50.060Z,1.30
2023-04-16T14:22:20.486Z,2.20
2023-04-16T14:24:51.048Z,1.40
2023-04-16T14:27:20.523Z,1.35
2023-04-16T14:29:51.191Z,1.13
2023-04-16T14:32:18.683Z,1.38
2023-04-16T14:34:46.521Z,1.10
2023-04-16T14:37:18.098Z,1.77
2023-04-16T14:39:49.985Z,1.40
2023-04-16T14:42:17.258Z,1.63
2023-04-16T14:44:44.512Z,0.85
2023-04-16T14:47:11.747Z,1.80
2023-04-16T14:49:38.848Z,1.85
2023-04-16T14:56:19.603Z,1.20
2023-04-16T14:59:44.419Z,1.02
2023-04-16T15:02:11.819Z,1.65
2023-04-16T15:04:39.284Z,1.35
2023-04-16T15:12:21.504Z,1.02
2023-04-16T15:19:01.982Z,1.98
2023-04-16T15:21:31.847Z,1.95
2023-04-16T15:23:59.314Z,1.40
2023-04-16T15:26:26.553Z,1.55
2023-04-16T15:28:53.704Z,1.60
2023-04-16T15:31:21.138Z,1.08
2023-04-16T15:33:49.532Z,1.50
2023-04-16T15:36:16.710Z,1.80
2023-04-16T15:38:43.936Z,1.27
2023-04-16T15:41:11.305Z,1.30
2023-04-16T15:43:38.887Z,1.90
2023-04-16T15:46:06.735Z,1.40
2023-04-16T15:48:33.945Z,1.58
2023-04-16T15:51:01.286Z,1.55
2023-04-16T15:53:28.707Z,1.38
2023-04-16T15:55:56.559Z,1.73
2023-04-16T15:58:58.547Z,2.10
2023-04-16T16:01:44.315Z,2.63
2023-04-16T16:04:15.659Z,1.48
2023-04-16T16:07:10.984Z,2.13
2023-04-16T16:09:45.502Z,1.50
2023-04-16T16:12:13.298Z,1.65
2023-04-16T16:14:40.554Z,1.20
2023-04-16T16:17:07.781Z,1.55
2023-04-16T16:19:35.653Z,1.75
2023-04-16T16:22:18.567Z,2.60
2023-04-16T16:24:46.342Z,2.53
2023-04-16T16:27:24.496Z,2.17
2023-04-16T16:30:36.148Z,3.08
2023-04-16T16:33:15.376Z,2.92
2023-04-16T16:35:56.958Z,2.35
2023-04-16T16:38:56.116Z,3.47
2023-04-16T16:41:48.988Z,2.70
2023-04-16T16:44:27.438Z,3.92
2023-04-16T16:47:10.117Z,4.05
2023-04-16T17:15:57.836Z,4.43
2023-04-16T17:18:25.506Z,4.90
2023-04-16T17:20:53.186Z,4.70
2023-04-16T17:23:23.479Z,3.65
2023-04-16T17:25:51.037Z,5.97
2023-04-16T17:28:18.502Z,5.38
2023-04-16T17:30:51.023Z,5.00
2023-04-16T17:33:19.639Z,3.78
2023-04-16T17:35:47.004Z,5.45
2023-04-16T17:38:14.412Z,5.18
2023-04-16T17:40:41.999Z,6.10
2023-04-16T17:43:09.513Z,6.55
2023-04-16T17:45:36.780Z,3.63
2023-04-16T17:48:04.850Z,5.38
2023-04-16T17:50:32.478Z,5.10
2023-04-16T17:53:03.764Z,5.07
2023-04-16T17:55:31.888Z,4.38
2023-04-16T17:58:00.598Z,4.63
2023-04-16T18:00:27.917Z,6.22
2023-04-16T18:02:56.974Z,5.35
2023-04-16T18:05:24.517Z,4.03
2023-04-16T18:07:51.920Z,5.13
2023-04-16T18:10:19.228Z,6.88
2023-04-16T18:12:46.440Z,4.97
2023-04-16T18:15:13.754Z,4.18
2023-04-16T18:17:41.337Z,4.13
2023-04-16T18:20:11.873Z,7.90
2023-04-16T18:22:39.332Z,6.18
2023-04-16T18:25:07.437Z,4.43
2023-04-16T18:27:34.806Z,4.60
2023-04-16T18:30:04.013Z,4.45
2023-04-16T18:32:33.270Z,7.20
2023-04-16T18:35:00.950Z,4.25
2023-04-16T18:37:28.607Z,4.15
2023-04-16T18:39:58.027Z,5.78
2023-04-16T18:42:29.558Z,6.72
2023-04-16T18:45:06.567Z,4.82
2023-04-16T18:51:36.348Z,4.78
2023-04-16T18:54:33.580Z,5.10
2023-04-16T18:57:48.226Z,4.75
2023-04-16T19:04:46.154Z,5.03
2023-04-16T19:11:13.842Z,4.82
2023-04-16T19:17:20.826Z,3.25
2023-04-16T19:20:08.261Z,4.18
2023-04-16T19:23:09.379Z,4.72
2023-04-16T19:26:46.705Z,3.13
2023-04-16T19:33:34.753Z,3.85
2023-04-16T19:37:00.418Z,4.03
2023-04-16T19:40:25.609Z,4.57
2023-04-16T19:43:33.757Z,4.72
2023-04-16T19:46:25.694Z,3.50
2023-04-16T19:49:58.404Z,4.40
2023-04-16T19:52:43.889Z,5.05
2023-04-16T19:55:29.328Z,3.80
2023-04-16T19:58:23.757Z,4.70
2023-04-16T20:01:12.054Z,3.72
2023-04-16T20:04:03.388Z,6.57
2023-04-16T20:07:02.770Z,3.20
2023-04-16T20:16:18.753Z,2.95
2023-04-16T20:23:30.435Z,4.03
2023-04-16T20:26:16.353Z,3.58
2023-04-16T20:33:16.417Z,4.22
2023-04-16T20:40:54.014Z,4.43
2023-04-16T20:49:58.276Z,3.50
2023-04-16T20:57:29.747Z,4.68
2023-04-16T21:00:37.336Z,3.53
2023-04-16T21:10:55.415Z,4.05
2023-04-16T21:20:00.042Z,3.33
2023-04-16T21:26:41.297Z,6.32
2023-04-16T21:29:21.900Z,5.75
2023-04-16T21:35:48.574Z,4.20
2023-04-16T21:38:27.484Z,3.63
2023-04-16T21:41:11.008Z,5.10
2023-04-16T21:44:04.299Z,3.50
2023-04-16T21:47:08.879Z,3.28
2023-04-16T21:53:15.193Z,3.97
2023-04-16T21:58:53.419Z,5.93
2023-04-16T22:01:20.697Z,7.97
2023-04-16T22:03:50.877Z,4.22
2023-04-16T22:06:18.511Z,4.32
2023-04-16T22:08:45.626Z,4.68
2023-04-16T22:11:12.772Z,4.80
2023-04-16T22:13:42.240Z,4.18
2023-04-16T22:16:11.527Z,3.47
2023-04-16T22:18:41.103Z,4.70
2023-04-16T22:21:08.396Z,3.42
2023-04-16T22:23:35.754Z,3.70
2023-04-16T22:26:04.226Z,3.30
2023-04-16T22:28:31.375Z,3.92
2023-04-16T22:30:58.583Z,3.47
2023-04-16T22:33:29.535Z,3.80
2023-04-16T22:35:56.971Z,4.78
2023-04-16T22:38:24.185Z,4.28
2023-04-16T22:40:51.277Z,2.42
2023-04-16T22:43:18.441Z,4.10
2023-04-16T22:45:48.762Z,3.30
2023-04-16T22:48:16.568Z,3.47
2023-04-16T22:50:51.076Z,4.18
2023-04-16T22:53:18.255Z,3.00
2023-04-16T22:55:45.480Z,2.50
2023-04-16T22:58:12.639Z,3.45
2023-04-16T23:00:39.840Z,4.45
2023-04-16T23:03:07.298Z,3.40
2023-04-16T23:05:34.757Z,4.53
2023-04-16T23:08:01.950Z,3.47
2023-04-16T23:10:29.104Z,2.75
2023-04-16T23:12:56.554Z,3.72
2023-04-16T23:15:23.756Z,4.65
2023-04-16T23:17:51.081Z,7.70
2023-04-16T23:20:18.209Z,3.30
2023-04-16T23:22:46.570Z,5.30
2023-04-16T23:25:13.608Z,4.30
2023-04-16T23:27:40.739Z,5.47
2023-04-16T23:30:08.654Z,2.60
2023-04-16T23:32:35.867Z,2.97
2023-04-16T23:35:03.044Z,4.75
2023-04-16T23:37:30.226Z,3.53
2023-04-16T23:39:57.391Z,3.38
2023-04-16T23:42:24.517Z,2.88
2023-04-16T23:44:51.740Z,3.95
2023-04-16T23:47:18.902Z,2.53
2023-04-16T23:49:46.090Z,2.92
2023-04-16T23:52:13.396Z,3.15
2023-04-16T23:54:40.758Z,3.05
2023-04-16T23:57:07.952Z,2.95
2023-04-16T23:59:35.063Z,3.40
